createdAt,value
2018-08-30T00:01:12.594Z,22.80
2018-08-30T00:03:40.994Z,23.00
2018-08-30T00:06:09.475Z,24.43
2018-08-30T00:08:37.827Z,24.40
2018-08-30T00:11:06.176Z,23.25
2018-08-30T00:13:34.502Z,24.52
2018-08-30T00:16:02.824Z,23.25
2018-08-30T00:18:31.322Z,23.75
2018-08-30T00:20:59.631Z,23.12
2018-08-30T00:23:28.007Z,24.92
2018-08-30T00:25:56.372Z,23.42
2018-08-30T00:28:24.744Z,23.45
2018-08-30T00:30:53.093Z,23.75
2018-08-30T00:33:21.476Z,23.95
2018-08-30T00:35:49.785Z,25.37
2018-08-30T00:38:18.165Z,24.40
2018-08-30T00:40:46.467Z,24.92
2018-08-30T00:43:14.876Z,25.88
2018-08-30T00:45:43.190Z,26.05
2018-08-30T00:48:11.618Z,25.60
2018-08-30T00:50:40.054Z,26.40
2018-08-30T00:53:08.438Z,25.72
2018-08-30T00:55:36.831Z,25.25
2018-08-30T00:58:05.289Z,24.43
2018-08-30T01:00:33.631Z,25.00
2018-08-30T01:03:01.985Z,26.30
2018-08-30T01:05:30.319Z,25.80
2018-08-30T01:07:58.720Z,24.70
2018-08-30T01:10:27.100Z,25.88
2018-08-30T01:12:56.488Z,24.45
2018-08-30T01:15:26.938Z,24.18
2018-08-30T01:17:55.874Z,25.00
2018-08-30T01:20:24.304Z,27.00
2018-08-30T01:22:52.718Z,26.37
2018-08-30T01:25:21.286Z,26.00
2018-08-30T01:27:49.684Z,27.22
2018-08-30T01:30:18.506Z,27.67
2018-08-30T01:32:46.929Z,28.23
2018-08-30T01:35:15.244Z,29.18
2018-08-30T01:37:43.591Z,29.35
2018-08-30T01:40:11.996Z,31.70
2018-08-30T01:42:40.361Z,34.20
2018-08-30T01:45:08.815Z,33.92
2018-08-30T01:47:37.192Z,35.95
2018-08-30T01:50:05.596Z,36.23
2018-08-30T01:52:33.928Z,38.85
2018-08-30T01:55:02.257Z,37.80
2018-08-30T01:57:30.680Z,38.83
2018-08-30T01:59:58.992Z,38.80
2018-08-30T02:02:27.368Z,41.20
2018-08-30T02:04:55.710Z,39.78
2018-08-30T02:07:24.055Z,38.83
2018-08-30T02:09:52.414Z,37.93
2018-08-30T02:12:20.726Z,37.50
2018-08-30T02:14:50.041Z,37.47
2018-08-30T02:17:18.343Z,37.50
2018-08-30T02:19:46.711Z,36.38
2018-08-30T02:22:15.056Z,35.70
2018-08-30T02:24:43.559Z,36.00
2018-08-30T02:27:12.013Z,38.10
2018-08-30T02:29:40.344Z,40.80
2018-08-30T02:32:08.642Z,41.43
2018-08-30T02:34:36.967Z,41.57
2018-08-30T02:37:05.371Z,41.55
2018-08-30T02:39:33.767Z,41.73
2018-08-30T02:42:02.123Z,42.20
2018-08-30T02:44:30.505Z,41.30
2018-08-30T02:46:58.910Z,41.10
2018-08-30T02:49:27.279Z,40.75
2018-08-30T02:51:55.615Z,40.52
2018-08-30T02:54:23.988Z,42.67
2018-08-30T02:56:52.327Z,41.77
2018-08-30T02:59:20.693Z,45.03
2018-08-30T03:01:49.079Z,42.30
2018-08-30T03:04:17.492Z,42.15
2018-08-30T03:06:45.890Z,41.63
2018-08-30T03:09:14.459Z,43.00
2018-08-30T03:11:42.908Z,42.50
2018-08-30T03:14:11.226Z,43.20
2018-08-30T03:16:39.518Z,43.15
2018-08-30T03:19:07.868Z,43.15
2018-08-30T03:21:36.166Z,43.28
2018-08-30T03:24:04.446Z,44.40
2018-08-30T03:26:32.752Z,42.58
2018-08-30T03:29:01.035Z,42.88
2018-08-30T03:31:29.375Z,44.70
2018-08-30T03:33:57.663Z,44.73
2018-08-30T03:36:25.985Z,47.65
2018-08-30T03:38:54.280Z,49.33
2018-08-30T03:41:22.569Z,50.00
2018-08-30T03:43:50.909Z,48.87
2018-08-30T03:46:19.219Z,47.43
2018-08-30T03:48:47.518Z,49.03
2018-08-30T03:51:15.903Z,51.83
2018-08-30T03:53:44.268Z,51.00
2018-08-30T03:56:12.599Z,51.60
2018-08-30T03:58:40.905Z,52.13
2018-08-30T04:01:09.183Z,53.43
2018-08-30T04:03:37.476Z,50.30
2018-08-30T04:06:05.781Z,52.57
2018-08-30T04:08:34.079Z,50.57
2018-08-30T04:11:02.354Z,50.00
2018-08-30T04:13:30.718Z,51.23
2018-08-30T04:15:58.946Z,49.70
2018-08-30T04:18:27.318Z,46.57
2018-08-30T04:20:55.696Z,44.73
2018-08-30T04:23:24.066Z,41.93
2018-08-30T04:25:52.425Z,33.03
2018-08-30T04:28:20.713Z,28.77
2018-08-30T04:30:49.005Z,27.93
2018-08-30T04:33:17.297Z,30.73
2018-08-30T04:35:45.721Z,29.83
2018-08-30T04:38:14.094Z,29.93
2018-08-30T04:40:42.427Z,24.60
2018-08-30T04:43:10.705Z,21.93
2018-08-30T04:45:39.038Z,17.60
2018-08-30T04:48:07.340Z,14.13
2018-08-30T04:50:35.692Z,14.43
2018-08-30T04:53:03.986Z,12.53
2018-08-30T04:55:32.298Z,14.70
2018-08-30T04:58:00.595Z,14.10
2018-08-30T05:00:28.909Z,14.00
2018-08-30T05:02:57.201Z,15.00
2018-08-30T05:05:26.222Z,13.50
2018-08-30T05:07:54.523Z,13.97
2018-08-30T05:10:22.965Z,14.90
2018-08-30T05:12:51.399Z,13.53
2018-08-30T05:15:19.763Z,12.37
2018-08-30T05:17:48.157Z,12.60
2018-08-30T05:20:16.574Z,13.33
2018-08-30T05:22:44.894Z,13.80
2018-08-30T05:25:14.706Z,12.03
2018-08-30T05:27:43.225Z,11.80
2018-08-30T05:30:18.218Z,13.03
2018-08-30T05:33:01.270Z,12.10
2018-08-30T05:35:43.568Z,11.97
2018-08-30T05:38:12.956Z,12.10
2018-08-30T05:40:41.748Z,11.87
2018-08-30T05:43:10.177Z,12.17
2018-08-30T05:45:38.478Z,11.73
2018-08-30T05:48:06.774Z,13.20
2018-08-30T05:50:35.074Z,10.77
2018-08-30T05:53:04.132Z,11.83
2018-08-30T05:55:32.860Z,10.50
2018-08-30T05:58:01.167Z,9.80
2018-08-30T06:00:29.528Z,10.70
2018-08-30T06:02:57.823Z,11.13
2018-08-30T06:05:26.171Z,10.80
2018-08-30T06:07:54.490Z,10.33
2018-08-30T06:10:22.778Z,11.40
2018-08-30T06:12:51.082Z,10.53
2018-08-30T06:15:19.378Z,9.10
2018-08-30T06:17:47.718Z,7.67
2018-08-30T06:20:16.271Z,7.40
2018-08-30T06:22:44.635Z,7.67
2018-08-30T06:25:12.905Z,7.43
2018-08-30T06:27:41.210Z,7.17
2018-08-30T06:30:09.722Z,6.70
2018-08-30T06:32:38.136Z,8.03
2018-08-30T06:35:06.501Z,7.43
2018-08-30T06:37:34.827Z,7.50
2018-08-30T06:40:03.227Z,7.10
2018-08-30T06:42:31.499Z,7.80
2018-08-30T06:44:59.860Z,7.63
2018-08-30T06:47:28.117Z,7.20
2018-08-30T06:49:56.475Z,6.60
2018-08-30T06:52:24.870Z,7.30
2018-08-30T06:54:53.214Z,6.93
2018-08-30T06:57:21.528Z,7.93
2018-08-30T06:59:49.852Z,7.40
2018-08-30T07:02:18.144Z,8.07
2018-08-30T07:04:46.688Z,8.17
2018-08-30T07:07:15.004Z,8.70
2018-08-30T07:09:43.384Z,8.67
2018-08-30T07:12:11.923Z,8.77
2018-08-30T07:14:40.297Z,9.03
2018-08-30T07:17:08.694Z,8.97
2018-08-30T07:19:36.963Z,10.13
2018-08-30T07:22:05.327Z,8.70
2018-08-30T07:24:33.649Z,8.17
2018-08-30T07:27:01.974Z,8.23
2018-08-30T07:29:30.250Z,8.03
2018-08-30T07:31:58.583Z,7.80
2018-08-30T07:34:26.973Z,6.73
2018-08-30T07:36:55.195Z,5.73
2018-08-30T07:39:23.478Z,5.90
2018-08-30T07:41:51.808Z,5.27
2018-08-30T07:44:20.289Z,5.97
2018-08-30T07:46:50.999Z,6.40
2018-08-30T07:49:19.713Z,7.00
2018-08-30T07:51:48.081Z,6.83
2018-08-30T07:54:16.498Z,6.33
2018-08-30T07:56:44.855Z,7.07
2018-08-30T07:59:13.316Z,7.90
2018-08-30T08:01:41.747Z,7.50
2018-08-30T08:04:10.053Z,8.27
2018-08-30T08:06:38.367Z,7.70
2018-08-30T08:09:08.270Z,8.90
2018-08-30T08:11:36.574Z,8.07
2018-08-30T08:14:04.957Z,8.50
2018-08-30T08:16:33.302Z,8.27
2018-08-30T08:19:01.666Z,9.20
2018-08-30T08:21:29.914Z,8.63
2018-08-30T08:23:58.265Z,9.07
2018-08-30T08:26:26.562Z,9.23
2018-08-30T08:28:54.881Z,9.10
2018-08-30T08:31:23.241Z,9.40
2018-08-30T08:33:51.746Z,8.50
2018-08-30T08:36:20.088Z,7.93
2018-08-30T08:38:48.658Z,7.27
2018-08-30T08:41:16.946Z,7.37
2018-08-30T08:43:45.250Z,7.87
2018-08-30T08:46:13.537Z,8.87
2018-08-30T08:48:41.867Z,11.23
2018-08-30T08:51:10.191Z,10.83
2018-08-30T08:53:38.523Z,11.70
2018-08-30T08:56:06.869Z,13.03
2018-08-30T08:58:35.151Z,13.90
2018-08-30T09:01:03.495Z,15.20
2018-08-30T09:03:31.842Z,15.00
2018-08-30T09:06:00.157Z,16.07
2018-08-30T09:08:28.486Z,16.33
2018-08-30T09:10:57.080Z,17.90
2018-08-30T09:13:25.430Z,21.00
2018-08-30T09:15:53.717Z,20.00
2018-08-30T09:18:22.171Z,20.73
2018-08-30T09:20:50.723Z,21.80
2018-08-30T09:23:19.063Z,22.73
2018-08-30T09:25:47.317Z,23.87
2018-08-30T09:28:15.604Z,24.50
2018-08-30T09:30:44.053Z,24.93
2018-08-30T09:33:12.477Z,25.90
2018-08-30T09:35:40.857Z,26.63
2018-08-30T09:38:09.219Z,26.67
2018-08-30T09:40:37.718Z,27.97
2018-08-30T09:43:07.092Z,28.53
2018-08-30T09:45:36.006Z,27.70
2018-08-30T09:48:05.774Z,31.10
2018-08-30T09:50:35.501Z,28.37
2018-08-30T09:53:04.456Z,28.00
2018-08-30T09:55:33.002Z,29.00
2018-08-30T09:58:01.264Z,28.43
2018-08-30T10:00:34.914Z,28.40
2018-08-30T10:03:03.205Z,28.07
2018-08-30T10:05:31.507Z,28.53
2018-08-30T10:07:59.953Z,26.80
2018-08-30T10:10:28.244Z,27.83
2018-08-30T10:12:56.912Z,27.03
2018-08-30T10:15:25.482Z,27.23
2018-08-30T10:17:53.877Z,26.53
2018-08-30T10:20:22.197Z,28.00
2018-08-30T10:22:50.462Z,25.93
2018-08-30T10:25:18.839Z,26.57
2018-08-30T10:27:47.169Z,28.33
2018-08-30T10:30:15.437Z,26.73
2018-08-30T10:32:44.210Z,24.77
2018-08-30T10:35:12.613Z,24.67
2018-08-30T10:37:40.969Z,25.23
2018-08-30T10:40:09.444Z,25.10
2018-08-30T10:42:37.733Z,23.17
2018-08-30T10:45:06.104Z,24.10
2018-08-30T10:47:41.089Z,22.50
2018-08-30T10:50:09.457Z,22.83
2018-08-30T10:52:38.020Z,22.77
2018-08-30T10:55:06.437Z,22.57
2018-08-30T10:57:34.725Z,22.27
2018-08-30T11:00:02.976Z,24.03
2018-08-30T11:02:31.264Z,22.47
2018-08-30T11:04:59.709Z,23.13
2018-08-30T11:07:28.303Z,22.53
2018-08-30T11:10:03.007Z,20.37
2018-08-30T11:12:31.514Z,20.17
2018-08-30T11:15:00.083Z,20.77
2018-08-30T11:17:29.071Z,20.10
2018-08-30T11:19:57.384Z,19.50
2018-08-30T11:22:25.771Z,19.37
2018-08-30T11:24:54.249Z,18.50
2018-08-30T11:27:22.670Z,17.57
2018-08-30T11:29:51.610Z,17.40
2018-08-30T11:32:19.911Z,16.03
2018-08-30T11:34:48.603Z,16.73
2018-08-30T11:37:16.909Z,17.17
2018-08-30T11:39:45.228Z,17.20
2018-08-30T11:42:13.507Z,16.73
2018-08-30T11:44:41.871Z,16.43
2018-08-30T11:47:10.198Z,17.97
2018-08-30T11:49:38.548Z,21.90
2018-08-30T11:52:09.979Z,17.10
2018-08-30T11:54:39.245Z,17.20
2018-08-30T11:57:08.341Z,15.50
2018-08-30T11:59:36.594Z,16.23
2018-08-30T12:02:04.954Z,16.80
2018-08-30T12:04:33.351Z,16.90
2018-08-30T12:07:01.909Z,16.47
2018-08-30T12:09:30.321Z,17.23
2018-08-30T12:12:01.903Z,17.10
2018-08-30T12:14:30.233Z,15.93
2018-08-30T12:16:58.587Z,16.15
2018-08-30T12:19:26.976Z,17.20
2018-08-30T12:21:55.353Z,16.60
2018-08-30T12:24:23.658Z,16.87
2018-08-30T12:26:53.482Z,15.53
2018-08-30T12:29:21.932Z,15.37
2018-08-30T12:31:50.286Z,15.98
2018-08-30T12:34:18.718Z,16.65
2018-08-30T12:36:47.229Z,14.58
2018-08-30T12:39:15.595Z,14.27
2018-08-30T12:41:43.942Z,14.38
2018-08-30T12:44:12.196Z,13.78
2018-08-30T12:46:40.476Z,13.45
2018-08-30T12:49:08.784Z,12.47
2018-08-30T12:51:37.311Z,13.08
2018-08-30T12:54:05.445Z,12.15
2018-08-30T12:56:33.737Z,12.00
2018-08-30T12:59:07.348Z,11.10
2018-08-30T13:01:35.906Z,11.20
2018-08-30T13:04:04.449Z,10.03
2018-08-30T13:07:35.495Z,9.70
2018-08-30T13:10:04.076Z,9.23
2018-08-30T13:12:32.509Z,9.13
2018-08-30T13:15:00.935Z,8.65
2018-08-30T13:17:29.205Z,8.85
2018-08-30T13:19:57.469Z,9.75
2018-08-30T13:22:26.117Z,8.60
2018-08-30T13:24:54.467Z,9.08
2018-08-30T13:27:22.973Z,9.45
2018-08-30T13:29:51.394Z,8.98
2018-08-30T13:32:19.879Z,9.45
2018-08-30T13:34:54.873Z,8.50
2018-08-30T13:37:23.340Z,7.15
2018-08-30T13:39:51.567Z,7.62
2018-08-30T13:42:20.086Z,7.78
2018-08-30T13:44:48.404Z,7.50
2018-08-30T13:50:07.257Z,7.28
2018-08-30T13:52:35.693Z,6.53
2018-08-30T13:55:04.127Z,7.35
2018-08-30T13:57:33.502Z,7.00
2018-08-30T14:00:02.033Z,7.08
2018-08-30T14:02:30.024Z,7.10
2018-08-30T14:04:58.663Z,7.28
2018-08-30T14:07:27.073Z,7.10
2018-08-30T14:09:55.524Z,7.53
2018-08-30T14:12:24.032Z,7.40
2018-08-30T14:14:52.357Z,6.67
2018-08-30T14:17:21.468Z,7.47
2018-08-30T14:19:50.191Z,7.15
2018-08-30T14:22:18.565Z,7.20
2018-08-30T14:24:46.896Z,6.85
2018-08-30T14:27:15.322Z,7.20
2018-08-30T14:29:43.557Z,6.17
2018-08-30T14:32:11.809Z,6.83
2018-08-30T14:34:40.070Z,6.53
2018-08-30T14:37:08.839Z,6.80
2018-08-30T14:39:37.129Z,6.95
2018-08-30T14:42:05.765Z,6.47
2018-08-30T14:44:34.891Z,7.20
2018-08-30T14:47:03.253Z,7.33
2018-08-30T14:49:31.589Z,7.75
2018-08-30T14:51:59.884Z,7.15
2018-08-30T14:54:28.261Z,6.28
2018-08-30T14:56:57.145Z,6.45
2018-08-30T14:59:25.902Z,6.70
2018-08-30T15:01:54.214Z,6.95
2018-08-30T15:04:22.503Z,5.87
2018-08-30T15:06:50.848Z,6.42
2018-08-30T15:09:19.171Z,5.70
2018-08-30T15:11:47.437Z,5.65
2018-08-30T15:14:16.138Z,5.12
2018-08-30T15:16:44.429Z,5.60
2018-08-30T15:19:13.034Z,5.47
2018-08-30T15:21:41.549Z,5.73
2018-08-30T15:24:09.956Z,5.33
2018-08-30T15:26:38.962Z,5.57
2018-08-30T15:29:07.651Z,5.75
2018-08-30T15:31:36.165Z,5.53
2018-08-30T15:34:04.622Z,5.17
2018-08-30T15:36:34.566Z,5.10
2018-08-30T15:39:03.183Z,5.58
2018-08-30T15:41:32.144Z,12.23
2018-08-30T15:44:00.429Z,6.05
2018-08-30T15:46:28.876Z,5.10
2018-08-30T15:48:57.282Z,5.33
2018-08-30T15:51:25.550Z,5.58
2018-08-30T15:53:54.209Z,5.33
2018-08-30T15:56:22.462Z,5.47
2018-08-30T15:58:51.027Z,5.30
2018-08-30T16:01:19.410Z,6.40
2018-08-30T16:03:47.789Z,5.63
2018-08-30T16:06:16.236Z,5.87
2018-08-30T16:08:44.758Z,6.43
2018-08-30T16:11:13.323Z,6.17
2018-08-30T16:13:41.891Z,6.20
2018-08-30T16:16:11.022Z,5.90
2018-08-30T16:18:39.524Z,7.62
2018-08-30T16:21:07.904Z,6.30
2018-08-30T16:23:37.263Z,5.05
2018-08-30T16:26:05.835Z,5.03
2018-08-30T16:28:34.983Z,4.97
2018-08-30T16:31:03.382Z,5.40
2018-08-30T16:33:31.686Z,5.37
2018-08-30T16:36:00.009Z,5.72
2018-08-30T16:38:28.335Z,5.40
2018-08-30T16:40:56.635Z,5.67
2018-08-30T16:43:25.009Z,5.27
2018-08-30T16:45:53.323Z,5.00
2018-08-30T16:48:21.714Z,5.57
2018-08-30T16:50:50.047Z,4.97
2018-08-30T16:53:18.499Z,6.10
2018-08-30T16:55:46.786Z,5.27
2018-08-30T16:58:15.109Z,5.28
2018-08-30T17:00:43.430Z,5.30
2018-08-30T17:03:11.763Z,5.20
2018-08-30T17:05:40.057Z,5.25
2018-08-30T17:08:08.371Z,4.90
2018-08-30T17:10:36.744Z,4.70
2018-08-30T17:13:05.082Z,5.03
2018-08-30T17:15:33.408Z,4.37
2018-08-30T17:18:01.764Z,4.23
2018-08-30T17:20:37.111Z,3.40
2018-08-30T17:23:05.817Z,3.15
2018-08-30T17:25:34.204Z,3.30
2018-08-30T17:28:02.582Z,2.80
2018-08-30T17:30:30.884Z,2.90
2018-08-30T17:32:59.388Z,2.67
2018-08-30T17:35:28.014Z,2.83
2018-08-30T17:37:56.565Z,3.20
2018-08-30T17:40:25.175Z,3.10
2018-08-30T17:42:53.535Z,3.20
2018-08-30T17:45:22.489Z,3.00
2018-08-30T17:47:50.713Z,3.10
2018-08-30T17:50:19.436Z,3.30
2018-08-30T17:52:47.747Z,3.50
2018-08-30T17:55:16.128Z,3.50
2018-08-30T17:57:48.469Z,3.70
2018-08-30T18:00:16.909Z,3.87
2018-08-30T18:02:46.194Z,3.87
2018-08-30T18:05:15.114Z,3.70
2018-08-30T18:07:43.764Z,3.87
2018-08-30T18:10:12.123Z,3.70
2018-08-30T18:12:40.737Z,3.87
2018-08-30T18:15:10.926Z,3.90
2018-08-30T18:17:39.255Z,4.50
2018-08-30T18:20:10.160Z,4.10
2018-08-30T18:22:38.594Z,4.33
2018-08-30T18:25:07.418Z,4.00
2018-08-30T18:27:35.862Z,4.00
2018-08-30T18:30:04.320Z,3.97
2018-08-30T18:32:32.695Z,3.87
2018-08-30T18:35:01.035Z,4.17
2018-08-30T18:37:29.378Z,4.03
2018-08-30T18:39:57.778Z,3.90
2018-08-30T18:42:26.120Z,4.43
2018-08-30T18:44:54.534Z,4.50
2018-08-30T18:47:22.889Z,4.00
2018-08-30T18:49:51.276Z,4.40
2018-08-30T18:52:19.588Z,4.53
2018-08-30T18:54:47.942Z,7.83
2018-08-30T18:57:16.334Z,5.67
2018-08-30T18:59:44.674Z,5.10
2018-08-30T19:02:13.067Z,5.00
2018-08-30T19:04:41.764Z,4.23
2018-08-30T19:07:10.473Z,4.27
2018-08-30T19:09:38.786Z,4.10
2018-08-30T19:12:07.565Z,4.30
2018-08-30T19:14:37.082Z,4.23
2018-08-30T19:17:11.167Z,4.33
2018-08-30T19:19:39.441Z,4.17
2018-08-30T19:22:07.881Z,4.53
2018-08-30T19:24:41.730Z,4.20
2018-08-30T19:27:10.062Z,4.17
2018-08-30T19:29:43.892Z,4.20
2018-08-30T19:32:12.564Z,5.40
2018-08-30T19:34:40.939Z,4.17
2018-08-30T19:37:09.322Z,4.43
2018-08-30T19:39:37.652Z,5.13
2018-08-30T19:42:06.914Z,4.23
2018-08-30T19:44:35.395Z,4.37
2018-08-30T19:47:04.004Z,4.83
2018-08-30T19:49:32.350Z,4.33
2018-08-30T19:52:00.895Z,4.07
2018-08-30T19:54:29.204Z,4.00
2018-08-30T19:56:57.902Z,3.80
2018-08-30T19:59:26.587Z,4.40
2018-08-30T20:01:55.255Z,4.13
2018-08-30T20:04:23.836Z,3.80
2018-08-30T20:06:53.135Z,3.73
2018-08-30T20:09:21.787Z,3.77
2018-08-30T20:11:50.664Z,3.53
2018-08-30T20:14:19.367Z,3.70
2018-08-30T20:16:48.120Z,5.70
2018-08-30T20:19:16.454Z,7.10
2018-08-30T20:21:45.939Z,5.17
2018-08-30T20:24:14.629Z,5.17
2018-08-30T20:26:42.947Z,16.80
2018-08-30T20:29:11.372Z,4.70
2018-08-30T20:31:40.029Z,12.60
2018-08-30T20:34:08.766Z,22.23
2018-08-30T20:36:37.179Z,17.77
2018-08-30T20:39:06.269Z,4.47
2018-08-30T20:41:34.662Z,8.23
2018-08-30T20:44:03.123Z,3.97
2018-08-30T20:46:31.516Z,3.60
2018-08-30T20:48:59.874Z,3.97
2018-08-30T20:51:28.187Z,4.23
2018-08-30T20:53:56.499Z,3.87
2018-08-30T20:56:24.922Z,5.50
2018-08-30T20:58:53.418Z,4.87
2018-08-30T21:01:21.711Z,5.13
2018-08-30T21:03:50.079Z,4.80
2018-08-30T21:06:18.387Z,4.97
2018-08-30T21:08:46.724Z,4.93
2018-08-30T21:11:15.118Z,4.50
2018-08-30T21:13:43.544Z,3.67
2018-08-30T21:16:11.962Z,3.57
2018-08-30T21:18:40.274Z,2.93
2018-08-30T21:21:08.739Z,3.00
2018-08-30T21:23:37.178Z,3.60
2018-08-30T21:26:05.942Z,3.13
2018-08-30T21:28:34.277Z,2.63
2018-08-30T21:31:02.585Z,2.70
2018-08-30T21:33:30.859Z,2.60
2018-08-30T21:35:59.234Z,2.83
2018-08-30T21:38:27.669Z,2.93
2018-08-30T21:40:55.994Z,2.60
2018-08-30T21:43:24.475Z,2.57
2018-08-30T21:45:52.958Z,2.77
2018-08-30T21:48:21.276Z,3.00
2018-08-30T21:50:49.642Z,2.87
2018-08-30T21:53:17.961Z,2.73
2018-08-30T21:55:46.293Z,3.27
2018-08-30T21:58:14.625Z,3.30
2018-08-30T22:00:42.981Z,3.43
2018-08-30T22:03:11.269Z,3.13
2018-08-30T22:05:39.569Z,3.23
2018-08-30T22:08:07.850Z,3.10
2018-08-30T22:10:36.225Z,3.80
2018-08-30T22:13:04.585Z,3.80
2018-08-30T22:15:32.905Z,3.83
2018-08-30T22:18:01.253Z,3.97
2018-08-30T22:20:29.563Z,4.20
2018-08-30T22:22:57.890Z,4.57
2018-08-30T22:25:26.214Z,4.23
2018-08-30T22:27:54.593Z,4.57
2018-08-30T22:30:22.902Z,5.50
2018-08-30T22:32:51.283Z,4.80
2018-08-30T22:35:19.605Z,4.40
2018-08-30T22:37:47.876Z,4.97
2018-08-30T22:40:16.237Z,5.10
2018-08-30T22:42:44.578Z,5.30
2018-08-30T22:45:12.929Z,5.40
2018-08-30T22:47:41.245Z,5.37
2018-08-30T22:50:09.839Z,5.90
2018-08-30T22:52:38.265Z,6.17
2018-08-30T22:55:06.596Z,4.93
2018-08-30T22:57:34.925Z,6.53
2018-08-30T23:00:03.328Z,6.40
2018-08-30T23:02:31.696Z,5.63
2018-08-30T23:05:00.057Z,6.83
2018-08-30T23:07:28.439Z,6.57
2018-08-30T23:09:56.849Z,6.20
2018-08-30T23:12:25.102Z,6.07
2018-08-30T23:14:53.498Z,5.93
2018-08-30T23:17:21.769Z,6.43
2018-08-30T23:19:50.150Z,5.80
2018-08-30T23:22:18.545Z,6.40
2018-08-30T23:24:46.830Z,6.23
2018-08-30T23:27:15.285Z,6.80
2018-08-30T23:29:43.576Z,6.27
2018-08-30T23:32:11.892Z,6.87
2018-08-30T23:34:40.188Z,7.43
2018-08-30T23:37:08.617Z,6.67
2018-08-30T23:39:37.035Z,7.37
2018-08-30T23:42:05.555Z,6.90
2018-08-30T23:44:33.974Z,7.60
2018-08-30T23:47:02.263Z,6.93
2018-08-30T23:49:30.557Z,7.33
2018-08-30T23:51:58.860Z,7.53
2018-08-30T23:54:27.312Z,7.00
2018-08-30T23:56:55.711Z,7.93
2018-08-30T23:59:35.389Z,7.37
